Time;durP1;ratioP1;P1;durP2;ratioP2;P2;SDS_P1;SDS_P2;PMS_P1;PMS_P2;Temp;Humidity;BMP_temperature;BMP_pressure;BME280_temperature;BME280_humidity;BME280_pressure;Samples;Min_cycle;Max_cycle;Signal;HPM_P1;HPM_P2
2022/12/10 00:01:03;;;;;;;;;;;;;;;;;;5011458;28;19968;-68
2022/12/10 00:03:29;;;;;;;;;;;;;;;;;;5012389;28;19913;-67
2022/12/10 00:05:55;;;;;;;;;;;;;;;;;;5013688;28;19918;-67
2022/12/10 00:08:21;;;;;;;;;;;;;;;;;;5021747;28;19925;-66
2022/12/10 00:10:46;;;;;;;;;;;;;;;;;;5011787;28;20393;-68
2022/12/10 00:13:12;;;;;;;;;;;;;;;;;;5019839;28;20389;-67
2022/12/10 00:15:38;;;;;;;;;;;;;;;;;;5030020;28;19920;-67
2022/12/10 00:18:04;;;;;;;;;;;;;;;;;;5030427;28;20400;-67
2022/12/10 00:20:30;;;;;;;;;;;;;;;;;;5030693;28;19920;-67
2022/12/10 00:22:56;;;;;;;;;;;;;;;;;;5030720;28;19909;-67
2022/12/10 00:25:22;;;;;;;;;;;;;;;;;;5030760;28;20392;-65
2022/12/10 00:27:48;;;;;;;;;;;;;;;;;;5030695;28;19917;-67
2022/12/10 00:30:13;;;;;;;;;;;;;;;;;;5030236;28;20392;-66
2022/12/10 00:32:39;;;;;;;;;;;;;;;;;;5030542;28;19916;-67
2022/12/10 00:35:05;;;;;;;;;;;;;;;;;;5030219;28;19909;-67
2022/12/10 00:37:31;;;;;;;;;;;;;;;;;;5030321;28;19948;-67
2022/12/10 00:39:57;;;;;;;;;;;;;;;;;;5030347;28;19940;-67
2022/12/10 00:42:23;;;;;;;;;;;;;;;;;;5029884;28;20075;-68
2022/12/10 00:44:49;;;;;;;;;;;;;;;;;;5029868;28;19928;-67
2022/12/10 00:47:15;;;;;;;;;;;;;;;;;;5029793;28;19975;-67
2022/12/10 00:49:41;;;;;;;;;;;;;;;;;;5030007;28;19952;-67
2022/12/10 00:52:06;;;;;;;;;;;;;;;;;;5030290;28;19910;-66
2022/12/10 00:54:32;;;;;;;;;;;;;;;;;;5030521;28;19953;-67
2022/12/10 00:56:58;;;;;;;;;;;;;;;;;;5030153;28;20282;-67
2022/12/10 00:59:24;;;;;;;;;;;;;;;;;;5029954;28;19916;-68
2022/12/10 01:01:50;;;;;;;;;;;;;;;;;;5029989;28;20286;-68
2022/12/10 01:04:16;;;;;;;;;;;;;;;;;;5029539;28;20004;-66
2022/12/10 01:06:42;;;;;;;;;;;;;;;;;;5014796;28;20350;-67
2022/12/10 01:09:08;;;;;;;;;;;;;;;;;;5018897;28;19952;-66
2022/12/10 01:11:33;;;;;;;;;;;;;;;;;;5011006;28;19921;-67
2022/12/10 01:13:59;;;;;;;;;;;;;;;;;;5024285;28;19913;-68
2022/12/10 01:16:25;;;;;;;;;;;;;;;;;;5029623;28;19956;-67
2022/12/10 01:18:51;;;;;;;;;;;;;;;;;;5029922;28;20007;-67
2022/12/10 01:21:17;;;;;;;;;;;;;;;;;;5029681;28;20478;-68
2022/12/10 01:23:43;;;;;;;;;;;;;;;;;;5016572;28;19913;-67
2022/12/10 01:26:09;;;;;;;;;;;;;;;;;;5029335;28;19917;-67
2022/12/10 01:28:35;;;;;;;;;;;;;;;;;;5029378;28;20368;-68
2022/12/10 01:31:01;;;;;;;;;;;;;;;;;;5029348;28;19963;-67
2022/12/10 01:33:27;;;;;;;;;;;;;;;;;;5029577;28;19920;-67
2022/12/10 01:35:53;;;;;;;;;;;;;;;;;;5029113;28;20012;-68
2022/12/10 01:38:19;;;;;;;;;;;;;;;;;;5029845;28;19909;-67
2022/12/10 01:40:44;;;;;;;;;;;;;;;;;;5028994;28;19916;-67
2022/12/10 01:43:10;;;;;;;;;;;;;;;;;;5028808;28;19920;-68
2022/12/10 01:45:36;;;;;;;;;;;;;;;;;;5028812;28;20006;-67
2022/12/10 01:48:02;;;;;;;;;;;;;;;;;;5029523;28;19920;-67
2022/12/10 01:50:28;;;;;;;;;;;;;;;;;;5029275;28;19914;-67
2022/12/10 01:52:54;;;;;;;;;;;;;;;;;;5028217;28;20259;-67
2022/12/10 01:55:20;;;;;;;;;;;;;;;;;;5025128;28;19917;-67
2022/12/10 01:57:46;;;;;;;;;;;;;;;;;;5009570;28;19914;-67
2022/12/10 02:00:12;;;;;;;;;;;;;;;;;;5022863;28;19909;-68
2022/12/10 02:02:40;;;;;;;;;;;;;;;;;;5015959;28;19921;-67
2022/12/10 02:05:06;;;;;;;;;;;;;;;;;;5009909;28;19960;-67
2022/12/10 02:07:32;;;;;;;;;;;;;;;;;;5023584;28;20015;-68
2022/12/10 02:09:58;;;;;;;;;;;;;;;;;;5018700;28;19914;-67
2022/12/10 02:12:24;;;;;;;;;;;;;;;;;;5028863;28;19924;-67
2022/12/10 02:14:50;;;;;;;;;;;;;;;;;;5028923;28;19960;-67
2022/12/10 02:17:16;;;;;;;;;;;;;;;;;;5028576;28;19948;-68
2022/12/10 02:19:42;;;;;;;;;;;;;;;;;;5028609;28;19916;-67
2022/12/10 02:22:08;;;;;;;;;;;;;;;;;;5029177;28;19913;-69
2022/12/10 02:24:34;;;;;;;;;;;;;;;;;;5028819;28;20048;-67
2022/12/10 02:27:00;;;;;;;;;;;;;;;;;;5028399;28;19920;-68
2022/12/10 02:29:26;;;;;;;;;;;;;;;;;;5028814;28;20389;-68
2022/12/10 02:31:52;;;;;;;;;;;;;;;;;;5028574;28;19916;-68
2022/12/10 02:34:17;;;;;;;;;;;;;;;;;;5029139;28;19913;-68
2022/12/10 02:36:43;;;;;;;;;;;;;;;;;;5029010;28;20412;-68
2022/12/10 02:39:09;;;;;;;;;;;;;;;;;;5028923;28;19988;-68
2022/12/10 02:41:35;;;;;;;;;;;;;;;;;;5027919;28;20286;-68
2022/12/10 02:44:01;;;;;;;;;;;;;;;;;;5028725;28;19987;-68
2022/12/10 02:46:28;;;;;;;;;;;;;;;;;;5028555;28;20020;-68
2022/12/10 02:48:54;;;;;;;;;;;;;;;;;;5028861;28;19919;-68
2022/12/10 02:51:20;;;;;;;;;;;;;;;;;;5028381;28;19909;-68
2022/12/10 02:53:45;;;;;;;;;;;;;;;;;;5017157;28;19914;-68
2022/12/10 02:56:11;;;;;;;;;;;;;;;;;;5010882;28;19913;-69
2022/12/10 02:58:37;;;;;;;;;;;;;;;;;;5013288;28;19956;-68
2022/12/10 03:01:03;;;;;;;;;;;;;;;;;;5012920;28;19913;-67
2022/12/10 03:03:29;;;;;;;;;;;;;;;;;;5013129;28;19964;-68
2022/12/10 03:05:55;;;;;;;;;;;;;;;;;;5013363;28;19921;-68
2022/12/10 03:08:21;;;;;;;;;;;;;;;;;;5017658;28;20628;-68
2022/12/10 03:10:47;;;;;;;;;;;;;;;;;;5028211;28;19921;-68
2022/12/10 03:13:13;;;;;;;;;;;;;;;;;;5031927;28;19913;-67
2022/12/10 03:15:39;;;;;;;;;;;;;;;;;;5031951;28;19959;-68
2022/12/10 03:18:04;;;;;;;;;;;;;;;;;;5032237;28;19960;-68
2022/12/10 03:20:30;;;;;;;;;;;;;;;;;;5031717;28;20020;-67
2022/12/10 03:22:56;;;;;;;;;;;;;;;;;;5031557;28;19948;-67
2022/12/10 03:25:22;;;;;;;;;;;;;;;;;;5031338;28;19928;-67
2022/12/10 03:27:49;;;;;;;;;;;;;;;;;;5017951;28;20636;-68
2022/12/10 03:30:15;;;;;;;;;;;;;;;;;;5012910;28;19940;-68
2022/12/10 03:32:41;;;;;;;;;;;;;;;;;;5012861;28;19944;-69
2022/12/10 03:35:07;;;;;;;;;;;;;;;;;;5026082;28;19948;-67
2022/12/10 03:37:34;;;;;;;;;;;;;;;;;;5031219;28;20354;-68
2022/12/10 03:40:00;;;;;;;;;;;;;;;;;;5031433;28;19913;-67
2022/12/10 03:42:25;;;;;;;;;;;;;;;;;;5031558;28;19996;-68
2022/12/10 03:44:51;;;;;;;;;;;;;;;;;;5030915;28;19917;-67
2022/12/10 03:47:17;;;;;;;;;;;;;;;;;;5025933;28;19917;-67
2022/12/10 03:49:43;;;;;;;;;;;;;;;;;;5012219;28;19959;-67
2022/12/10 03:52:09;;;;;;;;;;;;;;;;;;5014525;28;19917;-66
2022/12/10 03:54:35;;;;;;;;;;;;;;;;;;5024613;28;19924;-67
2022/12/10 03:57:01;;;;;;;;;;;;;;;;;;5026418;28;20378;-67
2022/12/10 03:59:27;;;;;;;;;;;;;;;;;;5017242;28;19909;-66
2022/12/10 04:01:53;;;;;;;;;;;;;;;;;;5030984;28;20397;-67
2022/12/10 04:04:18;;;;;;;;;;;;;;;;;;5031080;28;19917;-67
2022/12/10 04:06:44;;;;;;;;;;;;;;;;;;5030754;28;20385;-67
2022/12/10 04:09:10;;;;;;;;;;;;;;;;;;5025396;28;19979;-67
2022/12/10 04:11:36;;;;;;;;;;;;;;;;;;5030829;28;20298;-67
2022/12/10 04:16:46;;;;;;;;;;;;;;;;;;5030883;28;20002;-67
2022/12/10 04:19:12;;;;;;;;;;;;;;;;;;5031490;28;19976;-67
2022/12/10 04:27:07;;;;;;;;;;;;;;;;;;5031022;28;19979;-67
2022/12/10 04:29:33;;;;;;;;;;;;;;;;;;5030494;28;20723;-66
2022/12/10 04:31:59;;;;;;;;;;;;;;;;;;5030796;28;20028;-67
2022/12/10 04:34:25;;;;;;;;;;;;;;;;;;5030593;28;19924;-67
2022/12/10 04:36:51;;;;;;;;;;;;;;;;;;5030313;28;19959;-68
2022/12/10 04:39:17;;;;;;;;;;;;;;;;;;5030612;28;20285;-67
2022/12/10 04:41:43;;;;;;;;;;;;;;;;;;5030122;28;19909;-68
2022/12/10 04:44:09;;;;;;;;;;;;;;;;;;5030911;28;19909;-68
2022/12/10 04:46:35;;;;;;;;;;;;;;;;;;5030478;28;19921;-67
2022/12/10 04:49:01;;;;;;;;;;;;;;;;;;5030167;28;20263;-67
2022/12/10 04:51:26;;;;;;;;;;;;;;;;;;5030210;28;19924;-68
2022/12/10 04:53:52;;;;;;;;;;;;;;;;;;5030516;28;20008;-67
2022/12/10 04:56:18;;;;;;;;;;;;;;;;;;5030534;28;20585;-67
2022/12/10 04:58:44;;;;;;;;;;;;;;;;;;5017043;28;19917;-67
2022/12/10 05:01:10;;;;;;;;;;;;;;;;;;5011331;28;20255;-67
2022/12/10 05:03:36;;;;;;;;;;;;;;;;;;5022957;28;20004;-67
2022/12/10 05:06:02;;;;;;;;;;;;;;;;;;5029129;28;20027;-67
2022/12/10 05:08:28;;;;;;;;;;;;;;;;;;5025259;28;20008;-67
2022/12/10 05:10:54;;;;;;;;;;;;;;;;;;5023484;28;19916;-69
2022/12/10 05:13:19;;;;;;;;;;;;;;;;;;5030231;28;20376;-67
2022/12/10 05:15:45;;;;;;;;;;;;;;;;;;5030027;28;19996;-68
2022/12/10 05:18:11;;;;;;;;;;;;;;;;;;5029722;28;19913;-66
2022/12/10 05:20:37;;;;;;;;;;;;;;;;;;5029020;28;19921;-67
2022/12/10 05:25:53;;;;;;;;;;;;;;;;;;5029499;28;19967;-68
2022/12/10 05:28:19;;;;;;;;;;;;;;;;;;5027927;28;19913;-68
2022/12/10 05:30:45;;;;;;;;;;;;;;;;;;5010796;28;19910;-67
2022/12/10 05:33:11;;;;;;;;;;;;;;;;;;5028632;28;19913;-66
2022/12/10 05:35:37;;;;;;;;;;;;;;;;;;5029076;28;19937;-67
2022/12/10 05:38:03;;;;;;;;;;;;;;;;;;5018547;28;19971;-67
2022/12/10 05:40:29;;;;;;;;;;;;;;;;;;5010413;28;19913;-66
2022/12/10 05:42:55;;;;;;;;;;;;;;;;;;5010436;28;19910;-66
2022/12/10 05:45:21;;;;;;;;;;;;;;;;;;5010015;28;19917;-65
2022/12/10 05:47:46;;;;;;;;;;;;;;;;;;5014998;28;19910;-67
2022/12/10 05:50:12;;;;;;;;;;;;;;;;;;5019826;28;19964;-66
2022/12/10 05:52:38;;;;;;;;;;;;;;;;;;5025977;28;20410;-67
2022/12/10 05:55:04;;;;;;;;;;;;;;;;;;5010595;28;19913;-67
2022/12/10 05:57:30;;;;;;;;;;;;;;;;;;5010056;28;19975;-66
2022/12/10 05:59:56;;;;;;;;;;;;;;;;;;5018618;28;20290;-67
2022/12/10 06:02:22;;;;;;;;;;;;;;;;;;5028831;28;19943;-66
2022/12/10 06:04:48;;;;;;;;;;;;;;;;;;5028760;28;19915;-67
2022/12/10 06:07:14;;;;;;;;;;;;;;;;;;5029878;28;20484;-66
2022/12/10 06:09:39;;;;;;;;;;;;;;;;;;5028825;28;19913;-67
2022/12/10 06:12:05;;;;;;;;;;;;;;;;;;5028874;28;20377;-66
2022/12/10 06:14:31;;;;;;;;;;;;;;;;;;5028975;28;19960;-67
2022/12/10 06:16:57;;;;;;;;;;;;;;;;;;5028496;28;19909;-66
2022/12/10 06:19:23;;;;;;;;;;;;;;;;;;5028338;28;19909;-67
2022/12/10 06:21:50;;;;;;;;;;;;;;;;;;5022484;28;19917;-66
2022/12/10 06:24:16;;;;;;;;;;;;;;;;;;5010368;28;19913;-67
2022/12/10 06:26:41;;;;;;;;;;;;;;;;;;5009591;28;19928;-67
2022/12/10 06:29:07;;;;;;;;;;;;;;;;;;5028762;28;19913;-68
2022/12/10 06:31:33;;;;;;;;;;;;;;;;;;5017310;28;19913;-67
2022/12/10 06:33:59;;;;;;;;;;;;;;;;;;5013963;28;19916;-66
2022/12/10 06:36:25;;;;;;;;;;;;;;;;;;5014349;28;19920;-67
2022/12/10 06:38:51;;;;;;;;;;;;;;;;;;5013505;28;19920;-67
2022/12/10 06:41:17;;;;;;;;;;;;;;;;;;5013595;28;19920;-66
2022/12/10 06:43:43;;;;;;;;;;;;;;;;;;5016709;28;19964;-67
2022/12/10 06:46:09;;;;;;;;;;;;;;;;;;5017688;28;20434;-68
2022/12/10 06:48:35;;;;;;;;;;;;;;;;;;5016226;28;19917;-68
2022/12/10 06:51:01;;;;;;;;;;;;;;;;;;5017148;28;19947;-69
2022/12/10 06:53:27;;;;;;;;;;;;;;;;;;5032801;28;20297;-68
2022/12/10 06:55:52;;;;;;;;;;;;;;;;;;5032282;28;19923;-69
2022/12/10 06:58:18;;;;;;;;;;;;;;;;;;5032668;28;19909;-67
2022/12/10 07:00:44;;;;;;;;;;;;;;;;;;5031731;28;19917;-66
2022/12/10 07:03:10;;;;;;;;;;;;;;;;;;5031942;28;19945;-67
2022/12/10 07:05:36;;;;;;;;;;;;;;;;;;5031869;28;19917;-66
2022/12/10 07:08:02;;;;;;;;;;;;;;;;;;5032759;28;19924;-67
2022/12/10 07:10:28;;;;;;;;;;;;;;;;;;5032040;28;19944;-67
2022/12/10 07:12:54;;;;;;;;;;;;;;;;;;5032191;28;20370;-67
2022/12/10 07:15:20;;;;;;;;;;;;;;;;;;5032055;28;19913;-67
2022/12/10 07:17:45;;;;;;;;;;;;;;;;;;5017690;28;19909;-67
2022/12/10 07:20:11;;;;;;;;;;;;;;;;;;5017098;28;19910;-67
2022/12/10 07:22:37;;;;;;;;;;;;;;;;;;5013027;28;19952;-67
2022/12/10 07:25:03;;;;;;;;;;;;;;;;;;5018978;28;20023;-68
2022/12/10 07:27:31;;;;;;;;;;;;;;;;;;5025682;28;20633;-66
2022/12/10 07:29:57;;;;;;;;;;;;;;;;;;5012662;28;19956;-66
2022/12/10 07:32:23;;;;;;;;;;;;;;;;;;5031331;28;19915;-67
2022/12/10 07:34:49;;;;;;;;;;;;;;;;;;5031936;28;20388;-67
2022/12/10 07:37:15;;;;;;;;;;;;;;;;;;5024492;28;19979;-67
2022/12/10 07:39:42;;;;;;;;;;;;;;;;;;5031664;28;19979;-67
2022/12/10 07:42:08;;;;;;;;;;;;;;;;;;5031388;28;19909;-67
2022/12/10 07:44:34;;;;;;;;;;;;;;;;;;5030384;28;19975;-67
2022/12/10 07:47:00;;;;;;;;;;;;;;;;;;5022249;28;20337;-67
2022/12/10 07:49:26;;;;;;;;;;;;;;;;;;5026249;28;20004;-64
2022/12/10 07:51:52;;;;;;;;;;;;;;;;;;5016368;28;20015;-69
2022/12/10 07:54:18;;;;;;;;;;;;;;;;;;5029256;28;20293;-68
2022/12/10 07:56:44;;;;;;;;;;;;;;;;;;5031133;28;19913;-75
2022/12/10 07:59:10;;;;;;;;;;;;;;;;;;5027448;28;19914;-73
2022/12/10 08:01:36;;;;;;;;;;;;;;;;;;5014622;28;20512;-75
2022/12/10 08:04:02;;;;;;;;;;;;;;;;;;5021862;28;19913;-73
2022/12/10 08:06:27;;;;;;;;;;;;;;;;;;5020517;28;20479;-74
2022/12/10 08:08:53;;;;;;;;;;;;;;;;;;5017588;28;19925;-74
2022/12/10 08:11:19;;;;;;;;;;;;;;;;;;5030668;28;19985;-73
2022/12/10 08:13:45;;;;;;;;;;;;;;;;;;5030206;28;19913;-74
2022/12/10 08:16:11;;;;;;;;;;;;;;;;;;5029780;28;19917;-73
2022/12/10 08:18:37;;;;;;;;;;;;;;;;;;5028708;28;20297;-73
2022/12/10 08:21:03;;;;;;;;;;;;;;;;;;5021866;28;19913;-73
2022/12/10 08:23:29;;;;;;;;;;;;;;;;;;5018523;28;19909;-74
2022/12/10 08:25:55;;;;;;;;;;;;;;;;;;5030431;28;19932;-71
2022/12/10 08:28:21;;;;;;;;;;;;;;;;;;5023716;28;20290;-73
2022/12/10 08:30:47;;;;;;;;;;;;;;;;;;5018171;28;19913;-74
2022/12/10 08:33:12;;;;;;;;;;;;;;;;;;5031346;28;19920;-74
2022/12/10 08:35:38;;;;;;;;;;;;;;;;;;5031006;28;19913;-73
2022/12/10 08:38:04;;;;;;;;;;;;;;;;;;5030287;28;20362;-74
2022/12/10 08:40:30;;;;;;;;;;;;;;;;;;5012070;28;19936;-73
2022/12/10 08:42:56;;;;;;;;;;;;;;;;;;5023160;28;19979;-74
2022/12/10 08:45:22;;;;;;;;;;;;;;;;;;5024827;28;19928;-74
2022/12/10 08:47:48;;;;;;;;;;;;;;;;;;5023431;28;20010;-73
2022/12/10 08:50:14;;;;;;;;;;;;;;;;;;5030121;28;19959;-73
2022/12/10 08:52:40;;;;;;;;;;;;;;;;;;5029815;28;19936;-74
2022/12/10 08:55:05;;;;;;;;;;;;;;;;;;5027785;28;19964;-75
2022/12/10 08:57:31;;;;;;;;;;;;;;;;;;5010849;28;20442;-74
2022/12/10 08:59:57;;;;;;;;;;;;;;;;;;5011431;28;19952;-74
2022/12/10 09:02:23;;;;;;;;;;;;;;;;;;5027274;28;20023;-74
2022/12/10 09:04:49;;;;;;;;;;;;;;;;;;5027885;28;19914;-75
2022/12/10 09:07:15;;;;;;;;;;;;;;;;;;5014870;28;19932;-75
2022/12/10 09:09:41;;;;;;;;;;;;;;;;;;5030515;28;19913;-74
2022/12/10 09:12:07;;;;;;;;;;;;;;;;;;5020758;28;19932;-75
2022/12/10 09:14:33;;;;;;;;;;;;;;;;;;5020910;28;20007;-75
2022/12/10 09:16:59;;;;;;;;;;;;;;;;;;5030257;28;19913;-74
2022/12/10 09:19:24;;;;;;;;;;;;;;;;;;5031474;28;19917;-75
2022/12/10 09:21:50;;;;;;;;;;;;;;;;;;5030491;28;20390;-74
2022/12/10 09:24:16;;;;;;;;;;;;;;;;;;5030777;28;20144;-75
2022/12/10 09:26:42;;;;;;;;;;;;;;;;;;5016224;28;20374;-74
2022/12/10 09:29:09;;;;;;;;;;;;;;;;;;5012043;28;19956;-74
2022/12/10 09:31:34;;;;;;;;;;;;;;;;;;5011702;28;19913;-74
2022/12/10 09:34:00;;;;;;;;;;;;;;;;;;5018345;28;19920;-74
2022/12/10 09:36:26;;;;;;;;;;;;;;;;;;5031216;28;19913;-74
2022/12/10 09:38:53;;;;;;;;;;;;;;;;;;5011463;28;19910;-74
2022/12/10 09:41:19;;;;;;;;;;;;;;;;;;5011279;28;20300;-74
2022/12/10 09:43:46;;;;;;;;;;;;;;;;;;5011242;28;20483;-73
2022/12/10 09:46:11;;;;;;;;;;;;;;;;;;5011182;28;19918;-74
2022/12/10 09:48:37;;;;;;;;;;;;;;;;;;5016588;28;19928;-74
2022/12/10 09:51:03;;;;;;;;;;;;;;;;;;5012320;28;20027;-74
2022/12/10 09:53:29;;;;;;;;;;;;;;;;;;5024580;28;19966;-73
2022/12/10 09:55:55;;;;;;;;;;;;;;;;;;5014616;28;20297;-74
2022/12/10 09:58:21;;;;;;;;;;;;;;;;;;5030047;28;19920;-74
2022/12/10 10:00:47;;;;;;;;;;;;;;;;;;5029914;28;19916;-74
2022/12/10 10:03:13;;;;;;;;;;;;;;;;;;5019784;28;19925;-74
2022/12/10 10:05:39;;;;;;;;;;;;;;;;;;5020469;28;19921;-74
2022/12/10 10:08:05;;;;;;;;;;;;;;;;;;5023588;28;20317;-74
2022/12/10 10:10:30;;;;;;;;;;;;;;;;;;5013820;28;20293;-73
2022/12/10 10:12:56;;;;;;;;;;;;;;;;;;5013444;28;19921;-74
2022/12/10 10:15:22;;;;;;;;;;;;;;;;;;5028292;28;19916;-74
2022/12/10 10:17:49;;;;;;;;;;;;;;;;;;5023770;28;20022;-74
2022/12/10 10:20:15;;;;;;;;;;;;;;;;;;5025966;28;19917;-74
2022/12/10 10:22:41;;;;;;;;;;;;;;;;;;5031677;28;19916;-74
2022/12/10 10:25:07;;;;;;;;;;;;;;;;;;5012914;28;19928;-74
2022/12/10 10:27:33;;;;;;;;;;;;;;;;;;5030355;28;20348;-73
2022/12/10 10:29:59;;;;;;;;;;;;;;;;;;5023200;28;19920;-74
2022/12/10 10:32:24;;;;;;;;;;;;;;;;;;5011091;28;19913;-74
2022/12/10 10:34:50;;;;;;;;;;;;;;;;;;5011291;28;19909;-74
2022/12/10 10:37:16;;;;;;;;;;;;;;;;;;5017298;28;19910;-74
2022/12/10 10:39:42;;;;;;;;;;;;;;;;;;5009798;28;19910;-73
2022/12/10 10:42:08;;;;;;;;;;;;;;;;;;5029462;28;19913;-74
2022/12/10 10:44:34;;;;;;;;;;;;;;;;;;5023629;28;19967;-74
2022/12/10 10:47:00;;;;;;;;;;;;;;;;;;5016480;28;19962;-73
2022/12/10 10:49:26;;;;;;;;;;;;;;;;;;5012002;28;19913;-74
2022/12/10 10:51:52;;;;;;;;;;;;;;;;;;5011419;28;20366;-74
2022/12/10 10:54:18;;;;;;;;;;;;;;;;;;5010507;28;19916;-74
2022/12/10 10:56:44;;;;;;;;;;;;;;;;;;5023465;28;19914;-74
2022/12/10 10:59:10;;;;;;;;;;;;;;;;;;5027618;28;19914;-74
2022/12/10 11:01:36;;;;;;;;;;;;;;;;;;5030320;28;20243;-74
2022/12/10 11:04:01;;;;;;;;;;;;;;;;;;5029517;28;20044;-73
2022/12/10 11:06:27;;;;;;;;;;;;;;;;;;5012846;28;20290;-74
2022/12/10 11:08:53;;;;;;;;;;;;;;;;;;5026497;28;19921;-74
2022/12/10 11:11:20;;;;;;;;;;;;;;;;;;5029216;28;19917;-73
2022/12/10 11:13:45;;;;;;;;;;;;;;;;;;5029411;28;19916;-74
2022/12/10 11:16:11;;;;;;;;;;;;;;;;;;5029248;28;19913;-74
2022/12/10 11:18:37;;;;;;;;;;;;;;;;;;5025279;28;19917;-74
2022/12/10 11:21:03;;;;;;;;;;;;;;;;;;5033175;28;19937;-74
2022/12/10 11:23:29;;;;;;;;;;;;;;;;;;5031090;28;19909;-74
2022/12/10 11:25:56;;;;;;;;;;;;;;;;;;5030746;28;19936;-73
2022/12/10 11:28:22;;;;;;;;;;;;;;;;;;5027943;28;20320;-76
2022/12/10 11:30:48;;;;;;;;;;;;;;;;;;5034316;28;19920;-75
2022/12/10 11:33:13;;;;;;;;;;;;;;;;;;5026709;28;19960;-74
2022/12/10 11:35:39;;;;;;;;;;;;;;;;;;5032006;28;20373;-74
2022/12/10 11:38:05;;;;;;;;;;;;;;;;;;5020117;28;19993;-73
2022/12/10 11:40:31;;;;;;;;;;;;;;;;;;5013995;28;19914;-75
2022/12/10 11:42:57;;;;;;;;;;;;;;;;;;5020832;28;20396;-73
2022/12/10 11:45:23;;;;;;;;;;;;;;;;;;5024894;28;20398;-76
2022/12/10 11:47:49;;;;;;;;;;;;;;;;;;5022749;28;19975;-74
2022/12/10 11:50:15;;;;;;;;;;;;;;;;;;5019173;28;19921;-74
2022/12/10 11:52:41;;;;;;;;;;;;;;;;;;5021975;28;19917;-69
2022/12/10 11:55:07;;;;;;;;;;;;;;;;;;5024022;28;19928;-75
2022/12/10 11:57:33;;;;;;;;;;;;;;;;;;5017556;28;19914;-68
2022/12/10 11:59:59;;;;;;;;;;;;;;;;;;5022124;28;19917;-68
2022/12/10 12:02:25;;;;;;;;;;;;;;;;;;5017489;28;19925;-69
2022/12/10 12:04:51;;;;;;;;;;;;;;;;;;5022127;28;20009;-68
2022/12/10 12:07:17;;;;;;;;;;;;;;;;;;5020027;28;19926;-68
2022/12/10 12:09:43;;;;;;;;;;;;;;;;;;5017797;28;20754;-68
2022/12/10 12:12:08;;;;;;;;;;;;;;;;;;5019454;28;20282;-69
2022/12/10 12:14:34;;;;;;;;;;;;;;;;;;5018668;28;20004;-68
2022/12/10 12:17:00;;;;;;;;;;;;;;;;;;5019577;28;19917;-68
2022/12/10 12:19:26;;;;;;;;;;;;;;;;;;5015302;28;19924;-68
2022/12/10 12:21:52;;;;;;;;;;;;;;;;;;5015369;28;20392;-70
2022/12/10 12:24:18;;;;;;;;;;;;;;;;;;5015746;28;19928;-69
2022/12/10 12:26:46;;;;;;;;;;;;;;;;;;5021590;28;19925;-70
2022/12/10 12:29:12;;;;;;;;;;;;;;;;;;5017378;28;19936;-69
2022/12/10 12:31:37;;;;;;;;;;;;;;;;;;5017293;28;19918;-69
2022/12/10 12:34:03;;;;;;;;;;;;;;;;;;5014340;28;19918;-69
2022/12/10 12:36:29;;;;;;;;;;;;;;;;;;5017480;28;19920;-70
2022/12/10 12:38:55;;;;;;;;;;;;;;;;;;5018681;28;20308;-69
2022/12/10 12:41:21;;;;;;;;;;;;;;;;;;5019150;28;19913;-69
2022/12/10 12:43:47;;;;;;;;;;;;;;;;;;5019291;28;19918;-69
2022/12/10 12:46:13;;;;;;;;;;;;;;;;;;5015070;28;20271;-69
2022/12/10 12:48:39;;;;;;;;;;;;;;;;;;5018259;28;19964;-69
2022/12/10 12:51:05;;;;;;;;;;;;;;;;;;5020919;28;19929;-68
2022/12/10 12:53:31;;;;;;;;;;;;;;;;;;5018600;28;20349;-68
2022/12/10 12:55:56;;;;;;;;;;;;;;;;;;5017073;28;19984;-69
2022/12/10 12:58:22;;;;;;;;;;;;;;;;;;5017329;28;19983;-70
2022/12/10 13:00:48;;;;;;;;;;;;;;;;;;5015501;28;19917;-71
2022/12/10 13:03:14;;;;;;;;;;;;;;;;;;5018583;28;19917;-70
2022/12/10 13:05:40;;;;;;;;;;;;;;;;;;5012374;28;19947;-69
2022/12/10 13:08:06;;;;;;;;;;;;;;;;;;5017200;28;19991;-68
2022/12/10 13:10:32;;;;;;;;;;;;;;;;;;5014249;28;19940;-69
2022/12/10 13:12:58;;;;;;;;;;;;;;;;;;5017594;28;20089;-69
2022/12/10 13:15:24;;;;;;;;;;;;;;;;;;5017459;28;19987;-70
2022/12/10 13:17:49;;;;;;;;;;;;;;;;;;5024563;28;19917;-69
2022/12/10 13:20:15;;;;;;;;;;;;;;;;;;5024387;28;19975;-69
2022/12/10 13:22:41;;;;;;;;;;;;;;;;;;5014939;28;19940;-68
2022/12/10 13:25:07;;;;;;;;;;;;;;;;;;5014557;28;20384;-71
2022/12/10 13:27:33;;;;;;;;;;;;;;;;;;5019489;28;19966;-72
2022/12/10 13:29:59;;;;;;;;;;;;;;;;;;5019001;28;20328;-72
2022/12/10 13:32:26;;;;;;;;;;;;;;;;;;5018791;28;20445;-73
2022/12/10 13:34:52;;;;;;;;;;;;;;;;;;5014930;28;19918;-73
2022/12/10 13:37:18;;;;;;;;;;;;;;;;;;5014951;28;20317;-70
2022/12/10 13:39:44;;;;;;;;;;;;;;;;;;5019953;28;19920;-71
2022/12/10 13:44:55;;;;;;;;;;;;;;;;;;5019656;28;19936;-71
2022/12/10 13:47:20;;;;;;;;;;;;;;;;;;5016866;28;20365;-71
2022/12/10 13:49:46;;;;;;;;;;;;;;;;;;5017031;28;19956;-72
2022/12/10 13:52:12;;;;;;;;;;;;;;;;;;5016398;28;20344;-71
2022/12/10 13:54:38;;;;;;;;;;;;;;;;;;5016160;28;19921;-72
2022/12/10 13:57:04;;;;;;;;;;;;;;;;;;5015820;28;20582;-71
2022/12/10 13:59:30;;;;;;;;;;;;;;;;;;5016534;28;19968;-69
2022/12/10 14:01:56;;;;;;;;;;;;;;;;;;5013029;28;20278;-71
2022/12/10 14:04:22;;;;;;;;;;;;;;;;;;5015333;28;19924;-70
2022/12/10 14:06:48;;;;;;;;;;;;;;;;;;5015790;28;20394;-69
2022/12/10 14:09:14;;;;;;;;;;;;;;;;;;5014067;28;19921;-71
2022/12/10 14:11:40;;;;;;;;;;;;;;;;;;5019580;28;19976;-71
2022/12/10 14:14:06;;;;;;;;;;;;;;;;;;5014239;28;20361;-71
2022/12/10 14:16:32;;;;;;;;;;;;;;;;;;5017388;28;19917;-71
2022/12/10 14:18:58;;;;;;;;;;;;;;;;;;5015451;28;20390;-71
2022/12/10 14:21:24;;;;;;;;;;;;;;;;;;5016113;28;19917;-68
2022/12/10 14:23:50;;;;;;;;;;;;;;;;;;5015336;28;19917;-70
2022/12/10 14:26:16;;;;;;;;;;;;;;;;;;5015370;28;20280;-70
2022/12/10 14:28:42;;;;;;;;;;;;;;;;;;5013370;28;19913;-69
2022/12/10 14:31:08;;;;;;;;;;;;;;;;;;5015283;28;19921;-70
2022/12/10 14:33:34;;;;;;;;;;;;;;;;;;5021675;28;20527;-69
2022/12/10 14:35:59;;;;;;;;;;;;;;;;;;5013922;28;19936;-70
2022/12/10 14:38:26;;;;;;;;;;;;;;;;;;5016710;28;19960;-67
2022/12/10 14:40:52;;;;;;;;;;;;;;;;;;5016309;28;19913;-69
2022/12/10 14:43:18;;;;;;;;;;;;;;;;;;5019844;28;19921;-70
2022/12/10 14:45:44;;;;;;;;;;;;;;;;;;5017673;28;19994;-70
2022/12/10 14:48:10;;;;;;;;;;;;;;;;;;5016232;28;20008;-69
2022/12/10 14:50:35;;;;;;;;;;;;;;;;;;5017050;28;20311;-68
2022/12/10 14:53:01;;;;;;;;;;;;;;;;;;5015020;28;19963;-67
2022/12/10 14:55:27;;;;;;;;;;;;;;;;;;5021210;28;20279;-70
2022/12/10 14:57:53;;;;;;;;;;;;;;;;;;5022018;28;19918;-70
2022/12/10 15:00:19;;;;;;;;;;;;;;;;;;5017084;28;20351;-69
2022/12/10 15:02:45;;;;;;;;;;;;;;;;;;5021241;28;20011;-70
2022/12/10 15:05:11;;;;;;;;;;;;;;;;;;5018991;28;19921;-70
2022/12/10 15:07:37;;;;;;;;;;;;;;;;;;5022956;28;19925;-69
2022/12/10 15:10:03;;;;;;;;;;;;;;;;;;5019188;28;20275;-70
2022/12/10 15:12:29;;;;;;;;;;;;;;;;;;5018680;28;20008;-69
2022/12/10 15:14:55;;;;;;;;;;;;;;;;;;5016418;28;19914;-70
2022/12/10 15:17:21;;;;;;;;;;;;;;;;;;5017788;28;20401;-70
2022/12/10 15:19:46;;;;;;;;;;;;;;;;;;5020240;28;19967;-70
2022/12/10 15:22:12;;;;;;;;;;;;;;;;;;5018403;28;19967;-70
2022/12/10 15:24:38;;;;;;;;;;;;;;;;;;5017329;28;19924;-71
2022/12/10 15:27:04;;;;;;;;;;;;;;;;;;5014776;28;19979;-69
2022/12/10 15:29:30;;;;;;;;;;;;;;;;;;5023634;28;19948;-69
2022/12/10 15:31:56;;;;;;;;;;;;;;;;;;5022221;28;19944;-71
2022/12/10 15:34:22;;;;;;;;;;;;;;;;;;5019431;28;19963;-69
2022/12/10 15:36:48;;;;;;;;;;;;;;;;;;5016541;28;19923;-70
2022/12/10 15:39:14;;;;;;;;;;;;;;;;;;5016079;28;19917;-70
2022/12/10 15:41:40;;;;;;;;;;;;;;;;;;5022135;28;19918;-70
2022/12/10 15:44:06;;;;;;;;;;;;;;;;;;5018150;28;20680;-68
2022/12/10 15:46:32;;;;;;;;;;;;;;;;;;5021876;28;20598;-70
2022/12/10 15:48:58;;;;;;;;;;;;;;;;;;5016294;28;20012;-70
2022/12/10 15:51:24;;;;;;;;;;;;;;;;;;5018014;28;19917;-70
2022/12/10 15:53:49;;;;;;;;;;;;;;;;;;5019538;28;19917;-70
2022/12/10 15:56:15;;;;;;;;;;;;;;;;;;5015380;28;20394;-70
2022/12/10 15:58:41;;;;;;;;;;;;;;;;;;5020029;28;19913;-69
2022/12/10 16:01:07;;;;;;;;;;;;;;;;;;5019385;28;19921;-69
2022/12/10 16:03:33;;;;;;;;;;;;;;;;;;5015194;28;20004;-70
2022/12/10 16:05:59;;;;;;;;;;;;;;;;;;5016381;28;20470;-68
2022/12/10 16:08:25;;;;;;;;;;;;;;;;;;5019202;28;20008;-69
2022/12/10 16:10:51;;;;;;;;;;;;;;;;;;5015531;28;19914;-71
2022/12/10 16:13:17;;;;;;;;;;;;;;;;;;5020450;28;19933;-68
2022/12/10 16:15:43;;;;;;;;;;;;;;;;;;5022156;28;20382;-69
2022/12/10 16:18:08;;;;;;;;;;;;;;;;;;5017513;28;19918;-69
2022/12/10 16:20:34;;;;;;;;;;;;;;;;;;5019965;28;20461;-69
2022/12/10 16:23:00;;;;;;;;;;;;;;;;;;5014675;28;19924;-69
2022/12/10 16:25:26;;;;;;;;;;;;;;;;;;5018710;28;19926;-68
2022/12/10 16:27:52;;;;;;;;;;;;;;;;;;5019489;28;19999;-68
2022/12/10 16:30:18;;;;;;;;;;;;;;;;;;5020595;28;19928;-68
2022/12/10 16:32:44;;;;;;;;;;;;;;;;;;5015850;28;20700;-68
2022/12/10 16:35:13;;;;;;;;;;;;;;;;;;5017526;28;20417;-69
2022/12/10 16:37:39;;;;;;;;;;;;;;;;;;5017026;28;19921;-69
2022/12/10 16:40:05;;;;;;;;;;;;;;;;;;5016643;28;19917;-69
2022/12/10 16:42:31;;;;;;;;;;;;;;;;;;5017974;28;19918;-68
2022/12/10 16:44:57;;;;;;;;;;;;;;;;;;5012933;28;20047;-68
2022/12/10 16:47:23;;;;;;;;;;;;;;;;;;5018259;28;19921;-68
2022/12/10 16:49:49;;;;;;;;;;;;;;;;;;5014944;28;19924;-70